Terminal Aerodrome Forecast
Issued by NWS

Home | Current Version | Previous Version | Text Only | Print | Product List | Glossary On
Versions: 1 2 3 4 5 6 7 8 9 10 11 12 13 14 15 16 17 18 19 20 21
000
FTUS46 KSGX 270520
TAFSNA
TAF
KSNA 270520Z 2706/2806 VRB04KT P6SM OVC017
      TEMPO 2706/2709 OVC021
     FM271800 22007KT P6SM BKN017
     FM272000 23009KT P6SM SCT020 SCT200
     FM280200 VRB06KT P6SM SCT015
     FM280400 VRB04KT P6SM BKN014=

USA.gov is the U.S. government's official web portal to all federal, state and local government web resources and services.